Time;durP1;ratioP1;P1;durP2;ratioP2;P2;SDS_P1;SDS_P2;PMS_P1;PMS_P2;Temp;Humidity;BMP_temperature;BMP_pressure;BME280_temperature;BME280_humidity;BME280_pressure;Samples;Min_cycle;Max_cycle;Signal;HPM_P1;HPM_P2
2023/08/16 00:01:13;;;;;;;;;;;25.30;56.10;;;;;;5094884;28;20007;-57
2023/08/16 00:03:41;;;;;;;;;;;25.30;56.10;;;;;;5095137;28;19924;-57
2023/08/16 00:06:09;;;;;;;;;;;25.40;56.20;;;;;;5094271;28;19931;-57
2023/08/16 00:08:36;;;;;;;;;;;25.40;56.20;;;;;;5094768;28;19977;-57
2023/08/16 00:11:03;;;;;;;;;;;25.40;56.10;;;;;;5094584;28;19924;-57
2023/08/16 00:13:34;;;;;;;;;;;25.40;56.10;;;;;;5094661;28;19931;-57
2023/08/16 00:16:02;;;;;;;;;;;25.40;56.20;;;;;;5094706;28;19924;-57
2023/08/16 00:18:29;;;;;;;;;;;25.40;56.20;;;;;;5094708;28;19977;-57
2023/08/16 00:20:58;;;;;;;;;;;25.30;56.10;;;;;;5094545;28;19928;-58
2023/08/16 00:23:26;;;;;;;;;;;25.40;56.20;;;;;;5094506;28;20014;-59
2023/08/16 00:25:53;;;;;;;;;;;25.40;56.20;;;;;;5094113;28;19924;-57
2023/08/16 00:28:20;;;;;;;;;;;25.30;56.10;;;;;;5094614;28;19926;-56
2023/08/16 00:30:51;;;;;;;;;;;25.30;56.20;;;;;;5094910;28;19993;-58
2023/08/16 00:33:18;;;;;;;;;;;25.30;56.20;;;;;;5094730;28;19924;-58
2023/08/16 00:35:45;;;;;;;;;;;25.30;56.20;;;;;;5093980;28;19928;-57
2023/08/16 00:38:12;;;;;;;;;;;25.30;56.20;;;;;;5093592;28;20014;-58
2023/08/16 00:40:39;;;;;;;;;;;25.30;56.20;;;;;;5094232;28;20008;-59
2023/08/16 00:43:06;;;;;;;;;;;25.30;56.20;;;;;;5094326;28;19928;-59
2023/08/16 00:45:33;;;;;;;;;;;25.30;56.20;;;;;;5094246;28;19969;-57
2023/08/16 00:48:01;;;;;;;;;;;25.30;56.20;;;;;;5092964;28;20285;-57
2023/08/16 00:50:28;;;;;;;;;;;25.30;56.20;;;;;;5093133;28;19931;-56
2023/08/16 00:52:55;;;;;;;;;;;25.30;56.20;;;;;;5094174;28;20355;-58
2023/08/16 00:55:22;;;;;;;;;;;25.30;56.20;;;;;;5093983;28;19977;-58
2023/08/16 00:57:49;;;;;;;;;;;25.30;56.30;;;;;;5094171;28;20360;-57
2023/08/16 01:00:17;;;;;;;;;;;25.30;56.20;;;;;;5094231;28;19924;-58
2023/08/16 01:02:44;;;;;;;;;;;25.30;56.30;;;;;;5093934;28;19928;-58
2023/08/16 01:05:11;;;;;;;;;;;25.30;56.30;;;;;;5093597;28;20372;-59
2023/08/16 01:07:38;;;;;;;;;;;25.30;56.30;;;;;;5093597;28;19924;-55
2023/08/16 01:10:06;;;;;;;;;;;25.30;56.30;;;;;;5093655;28;20347;-58
2023/08/16 01:12:45;;;;;;;;;;;25.30;56.30;;;;;;5093461;28;19925;-57
2023/08/16 01:15:16;;;;;;;;;;;25.20;56.20;;;;;;5093579;28;20364;-57
2023/08/16 01:17:43;;;;;;;;;;;25.30;56.30;;;;;;5093710;28;19924;-57
2023/08/16 01:20:12;;;;;;;;;;;25.20;56.20;;;;;;5093450;28;19928;-57
2023/08/16 01:22:56;;;;;;;;;;;25.20;56.20;;;;;;5092572;28;20366;-57
2023/08/16 01:25:28;;;;;;;;;;;25.20;56.20;;;;;;5093672;28;19924;-58
2023/08/16 01:27:56;;;;;;;;;;;25.20;56.30;;;;;;5093252;28;19932;-59
2023/08/16 01:30:23;;;;;;;;;;;25.20;56.30;;;;;;5093321;28;19924;-57
2023/08/16 01:32:50;;;;;;;;;;;25.20;56.20;;;;;;5093531;28;20014;-57
2023/08/16 01:35:17;;;;;;;;;;;25.20;56.30;;;;;;5093177;28;20023;-55
2023/08/16 01:37:44;;;;;;;;;;;25.20;56.30;;;;;;5093343;28;19931;-58
2023/08/16 01:40:12;;;;;;;;;;;25.20;56.30;;;;;;5093455;28;20280;-57
2023/08/16 01:42:42;;;;;;;;;;;25.20;56.30;;;;;;5093176;28;19924;-58
2023/08/16 01:45:09;;;;;;;;;;;25.20;56.30;;;;;;5092873;28;19931;-58
2023/08/16 01:47:38;;;;;;;;;;;25.20;56.30;;;;;;5093253;28;19928;-57
2023/08/16 01:50:05;;;;;;;;;;;25.20;56.30;;;;;;5093577;28;19924;-56
2023/08/16 01:52:33;;;;;;;;;;;25.20;56.20;;;;;;5093128;28;19978;-57
2023/08/16 01:55:01;;;;;;;;;;;25.20;56.20;;;;;;5092964;28;20366;-58
2023/08/16 01:57:28;;;;;;;;;;;25.20;56.10;;;;;;5093456;28;19924;-57
2023/08/16 01:59:56;;;;;;;;;;;25.20;56.10;;;;;;5093090;28;19924;-57
2023/08/16 02:02:24;;;;;;;;;;;25.20;56.10;;;;;;5094584;28;20269;-57
2023/08/16 02:04:51;;;;;;;;;;;25.20;56.10;;;;;;5096954;28;20388;-58
2023/08/16 02:07:18;;;;;;;;;;;25.20;56.10;;;;;;5097294;28;19927;-57
2023/08/16 02:09:45;;;;;;;;;;;25.20;56.10;;;;;;5097109;28;20364;-57
2023/08/16 02:12:13;;;;;;;;;;;25.30;56.10;;;;;;5096786;28;19962;-57
2023/08/16 02:14:40;;;;;;;;;;;25.30;56.10;;;;;;5096387;28;19924;-57
2023/08/16 02:17:07;;;;;;;;;;;25.20;56.00;;;;;;5095709;28;19932;-57
2023/08/16 02:19:34;;;;;;;;;;;25.30;56.10;;;;;;5096809;28;19969;-56
2023/08/16 02:22:01;;;;;;;;;;;25.30;56.10;;;;;;5096816;28;19950;-57
2023/08/16 02:24:28;;;;;;;;;;;25.30;56.10;;;;;;5096292;28;19925;-57
2023/08/16 02:26:55;;;;;;;;;;;25.30;56.10;;;;;;5096791;28;19931;-57
2023/08/16 02:29:22;;;;;;;;;;;25.20;56.00;;;;;;5096865;28;19925;-58
2023/08/16 02:31:49;;;;;;;;;;;25.30;56.00;;;;;;5096734;28;19970;-57
2023/08/16 02:34:16;;;;;;;;;;;25.20;56.00;;;;;;5096363;28;20372;-58
2023/08/16 02:36:43;;;;;;;;;;;25.30;56.10;;;;;;5096494;28;19973;-57
2023/08/16 02:39:10;;;;;;;;;;;25.30;56.10;;;;;;5096671;28;20348;-58
2023/08/16 02:41:37;;;;;;;;;;;25.20;56.00;;;;;;5096586;28;19975;-56
2023/08/16 02:44:04;;;;;;;;;;;25.20;56.00;;;;;;5096626;28;19977;-58
2023/08/16 02:46:31;;;;;;;;;;;25.20;56.00;;;;;;5096477;28;19924;-57
2023/08/16 02:48:58;;;;;;;;;;;25.20;56.00;;;;;;5096343;28;20372;-57
2023/08/16 02:51:25;;;;;;;;;;;25.20;56.10;;;;;;5096383;28;19931;-57
2023/08/16 02:53:52;;;;;;;;;;;25.20;56.10;;;;;;5096196;28;20446;-57
2023/08/16 02:56:19;;;;;;;;;;;25.20;56.10;;;;;;5095998;28;19924;-58
2023/08/16 02:58:46;;;;;;;;;;;25.20;56.10;;;;;;5096232;28;20299;-58
2023/08/16 03:01:14;;;;;;;;;;;25.20;56.10;;;;;;5096565;28;20372;-58
2023/08/16 03:03:42;;;;;;;;;;;25.20;56.10;;;;;;5096566;28;19924;-58
2023/08/16 03:06:09;;;;;;;;;;;25.20;56.10;;;;;;5095487;28;19974;-58
2023/08/16 03:08:36;;;;;;;;;;;25.20;56.10;;;;;;5095839;28;20273;-58
2023/08/16 03:11:03;;;;;;;;;;;25.20;56.10;;;;;;5096321;28;19985;-57
2023/08/16 03:13:33;;;;;;;;;;;25.20;56.10;;;;;;5094363;28;20217;-57
2023/08/16 03:16:00;;;;;;;;;;;25.10;56.10;;;;;;5095618;28;19969;-57
2023/08/16 03:18:27;;;;;;;;;;;25.20;56.10;;;;;;5095732;28;19927;-57
2023/08/16 03:20:55;;;;;;;;;;;25.20;56.10;;;;;;5095960;28;19928;-57
2023/08/16 03:23:22;;;;;;;;;;;25.10;56.10;;;;;;5095304;28;19924;-58
2023/08/16 03:25:49;;;;;;;;;;;25.20;56.10;;;;;;5095154;28;19928;-57
2023/08/16 03:28:16;;;;;;;;;;;25.20;56.10;;;;;;5095921;28;20334;-58
2023/08/16 03:30:43;;;;;;;;;;;25.20;56.10;;;;;;5094516;28;19970;-57
2023/08/16 03:33:10;;;;;;;;;;;25.20;56.20;;;;;;5095519;28;19928;-57
2023/08/16 03:35:37;;;;;;;;;;;25.10;56.10;;;;;;5095526;28;19924;-58
2023/08/16 03:38:04;;;;;;;;;;;25.20;56.20;;;;;;5094985;28;19924;-57
2023/08/16 03:40:31;;;;;;;;;;;25.10;56.10;;;;;;5094926;28;19924;-58
2023/08/16 03:42:58;;;;;;;;;;;25.20;56.20;;;;;;5095701;28;19997;-58
2023/08/16 03:45:26;;;;;;;;;;;25.10;56.10;;;;;;5094569;28;19924;-58
2023/08/16 03:47:56;;;;;;;;;;;25.20;56.10;;;;;;5095023;28;20403;-57
2023/08/16 03:50:23;;;;;;;;;;;25.10;56.10;;;;;;5095126;28;19971;-57
2023/08/16 03:52:50;;;;;;;;;;;25.10;56.10;;;;;;5094965;28;19930;-57
2023/08/16 03:55:18;;;;;;;;;;;25.10;56.10;;;;;;5095126;28;19928;-57
2023/08/16 03:57:45;;;;;;;;;;;25.10;56.30;;;;;;5081815;28;19931;-57
2023/08/16 04:00:13;;;;;;;;;;;25.10;56.10;;;;;;5079919;28;20345;-58
2023/08/16 04:02:40;;;;;;;;;;;25.20;56.10;;;;;;5087122;28;19950;-57
2023/08/16 04:05:08;;;;;;;;;;;25.10;56.00;;;;;;5082929;28;19924;-57
2023/08/16 04:07:35;;;;;;;;;;;25.20;56.10;;;;;;5080661;28;19937;-56
2023/08/16 04:10:03;;;;;;;;;;;25.20;56.10;;;;;;5094662;28;19971;-58
2023/08/16 04:12:29;;;;;;;;;;;25.20;56.10;;;;;;5094842;28;19977;-57
2023/08/16 04:14:56;;;;;;;;;;;25.10;56.10;;;;;;5083127;28;19969;-57
2023/08/16 04:17:24;;;;;;;;;;;25.10;56.00;;;;;;5086855;28;20322;-58
2023/08/16 04:19:51;;;;;;;;;;;25.20;56.00;;;;;;5079288;28;19970;-57
2023/08/16 04:22:18;;;;;;;;;;;25.20;56.00;;;;;;5087541;28;19951;-57
2023/08/16 04:24:46;;;;;;;;;;;25.20;56.00;;;;;;5079442;28;20272;-57
2023/08/16 04:27:13;;;;;;;;;;;25.20;55.90;;;;;;5094281;28;19984;-57
2023/08/16 04:29:40;;;;;;;;;;;25.20;55.90;;;;;;5094416;28;19928;-55
2023/08/16 04:32:07;;;;;;;;;;;25.30;56.00;;;;;;5094672;28;19931;-58
2023/08/16 04:34:34;;;;;;;;;;;25.30;55.90;;;;;;5093305;28;19960;-57
2023/08/16 04:37:01;;;;;;;;;;;25.30;55.90;;;;;;5094248;28;19928;-56
2023/08/16 04:39:28;;;;;;;;;;;25.20;56.00;;;;;;5086558;28;19925;-58
2023/08/16 04:41:55;;;;;;;;;;;25.10;56.20;;;;;;5074059;28;19928;-57
2023/08/16 04:44:22;;;;;;;;;;;25.00;56.50;;;;;;5074157;28;19924;-57
2023/08/16 04:46:49;;;;;;;;;;;24.80;56.70;;;;;;5073652;28;19998;-56
2023/08/16 04:49:16;;;;;;;;;;;24.60;55.80;;;;;;5079659;28;19978;-57
2023/08/16 04:51:43;;;;;;;;;;;24.30;54.30;;;;;;5080947;28;19977;-57
2023/08/16 04:54:10;;;;;;;;;;;24.00;52.80;;;;;;5073183;28;19928;-57
2023/08/16 04:56:37;;;;;;;;;;;23.70;51.80;;;;;;5072297;28;19931;-56
2023/08/16 04:59:04;;;;;;;;;;;23.40;51.20;;;;;;5073802;28;19925;-56
2023/08/16 05:01:31;;;;;;;;;;;23.10;50.60;;;;;;5073581;28;19932;-58
2023/08/16 05:04:03;;;;;;;;;;;22.80;50.00;;;;;;5072801;28;19925;-57
2023/08/16 05:06:32;;;;;;;;;;;22.60;50.10;;;;;;5072399;28;19947;-58
2023/08/16 05:08:59;;;;;;;;;;;22.30;50.40;;;;;;5073089;28;19930;-56
2023/08/16 05:11:26;;;;;;;;;;;22.00;50.00;;;;;;5073294;28;20381;-55
2023/08/16 05:13:53;;;;;;;;;;;21.70;49.40;;;;;;5072817;28;20472;-57
2023/08/16 05:16:20;;;;;;;;;;;21.50;50.00;;;;;;5072962;28;20289;-55
2023/08/16 05:18:52;;;;;;;;;;;21.20;50.60;;;;;;5081110;28;19924;-56
2023/08/16 05:21:19;;;;;;;;;;;21.00;52.20;;;;;;5083094;28;19932;-57
2023/08/16 05:23:46;;;;;;;;;;;20.80;51.40;;;;;;5075111;28;19936;-60
2023/08/16 05:26:13;;;;;;;;;;;20.60;51.50;;;;;;5071610;28;20384;-59
2023/08/16 05:28:40;;;;;;;;;;;20.50;51.90;;;;;;5069212;28;19998;-59
2023/08/16 05:31:08;;;;;;;;;;;20.30;53.10;;;;;;5071911;28;19932;-58
2023/08/16 05:33:36;;;;;;;;;;;20.20;52.70;;;;;;5070716;28;19932;-58
2023/08/16 05:36:07;;;;;;;;;;;20.10;52.80;;;;;;5065980;28;20359;-65
2023/08/16 05:38:34;;;;;;;;;;;20.00;52.90;;;;;;5062112;28;19928;-64
2023/08/16 05:41:04;;;;;;;;;;;19.90;52.60;;;;;;5071473;28;19989;-65
2023/08/16 05:43:31;;;;;;;;;;;19.80;53.10;;;;;;5073576;28;19932;-65
2023/08/16 05:45:59;;;;;;;;;;;19.70;54.10;;;;;;5072227;28;19924;-66
2023/08/16 05:48:26;;;;;;;;;;;19.60;54.60;;;;;;5072807;28;20027;-66
2023/08/16 05:50:53;;;;;;;;;;;19.60;53.70;;;;;;5075319;28;19924;-66
2023/08/16 05:53:20;;;;;;;;;;;19.60;54.10;;;;;;5070453;28;19928;-65
2023/08/16 05:55:47;;;;;;;;;;;19.50;53.90;;;;;;5074843;28;20400;-65
2023/08/16 05:58:14;;;;;;;;;;;19.50;53.40;;;;;;5073924;28;19924;-66
2023/08/16 06:00:45;;;;;;;;;;;19.40;53.60;;;;;;5069859;28;19972;-65
2023/08/16 06:03:12;;;;;;;;;;;19.40;54.40;;;;;;5068927;28;19932;-65
2023/08/16 06:05:40;;;;;;;;;;;19.40;54.10;;;;;;5068579;28;20303;-66
2023/08/16 06:08:08;;;;;;;;;;;19.30;54.00;;;;;;5070088;28;19981;-65
2023/08/16 06:10:35;;;;;;;;;;;19.30;53.90;;;;;;5070638;28;19942;-65
2023/08/16 06:13:03;;;;;;;;;;;19.20;54.10;;;;;;5066094;28;19970;-64
2023/08/16 06:15:30;;;;;;;;;;;19.20;54.30;;;;;;5067945;28;19955;-65
2023/08/16 06:17:57;;;;;;;;;;;19.10;58.40;;;;;;5069223;28;19978;-65
2023/08/16 06:20:24;;;;;;;;;;;19.10;56.10;;;;;;5066393;28;19931;-65
2023/08/16 06:22:51;;;;;;;;;;;19.10;58.50;;;;;;5066532;28;19928;-65
2023/08/16 06:25:18;;;;;;;;;;;19.00;55.70;;;;;;5070785;28;19979;-66
2023/08/16 06:27:46;;;;;;;;;;;19.00;58.80;;;;;;5071185;28;19951;-66
2023/08/16 06:30:13;;;;;;;;;;;19.00;57.00;;;;;;5073755;28;20607;-66
2023/08/16 06:32:40;;;;;;;;;;;19.00;58.40;;;;;;5069522;28;19928;-66
2023/08/16 06:35:08;;;;;;;;;;;19.00;58.30;;;;;;5075376;28;20343;-67
2023/08/16 06:37:38;;;;;;;;;;;19.10;58.40;;;;;;5071781;28;20011;-66
2023/08/16 06:40:05;;;;;;;;;;;19.10;56.50;;;;;;5068575;28;19977;-66
2023/08/16 06:42:32;;;;;;;;;;;19.20;56.70;;;;;;5073042;28;19933;-66
2023/08/16 06:44:59;;;;;;;;;;;19.20;58.40;;;;;;5079383;28;19939;-65
2023/08/16 06:47:26;;;;;;;;;;;19.30;56.50;;;;;;5071867;28;19932;-66
2023/08/16 06:49:54;;;;;;;;;;;19.30;56.90;;;;;;5067303;28;19924;-66
2023/08/16 06:52:22;;;;;;;;;;;19.30;57.40;;;;;;5077604;28;19924;-67
2023/08/16 06:54:49;;;;;;;;;;;19.30;56.70;;;;;;5077068;28;19929;-66
2023/08/16 06:57:16;;;;;;;;;;;19.40;56.80;;;;;;5076733;28;20503;-66
2023/08/16 06:59:43;;;;;;;;;;;19.40;56.90;;;;;;5074853;28;19939;-65
2023/08/16 07:02:11;;;;;;;;;;;19.40;57.20;;;;;;5077247;28;19932;-65
2023/08/16 07:04:38;;;;;;;;;;;19.50;56.90;;;;;;5080350;28;19978;-65
2023/08/16 07:07:05;;;;;;;;;;;19.50;57.00;;;;;;5077188;28;19976;-66
2023/08/16 07:09:32;;;;;;;;;;;19.50;57.20;;;;;;5074170;28;20001;-66
2023/08/16 07:12:00;;;;;;;;;;;19.50;58.10;;;;;;5076074;28;19931;-65
2023/08/16 07:14:27;;;;;;;;;;;19.50;59.00;;;;;;5082605;28;19931;-66
2023/08/16 07:16:55;;;;;;;;;;;19.60;59.40;;;;;;5071296;28;20296;-66
2023/08/16 07:19:23;;;;;;;;;;;19.50;60.00;;;;;;5074989;28;19939;-65
2023/08/16 07:21:50;;;;;;;;;;;19.50;61.10;;;;;;5077447;28;19977;-65
2023/08/16 07:24:17;;;;;;;;;;;19.50;61.60;;;;;;5071824;28;19943;-66
2023/08/16 07:26:45;;;;;;;;;;;19.40;61.10;;;;;;5075265;28;19939;-66
2023/08/16 07:29:12;;;;;;;;;;;19.40;62.20;;;;;;5070204;28;19925;-66
2023/08/16 07:31:39;;;;;;;;;;;19.40;62.70;;;;;;5076518;28;19932;-66
2023/08/16 07:34:06;;;;;;;;;;;19.40;63.00;;;;;;5071215;28;20409;-65
2023/08/16 07:36:33;;;;;;;;;;;19.40;62.90;;;;;;5072389;28;20352;-65
2023/08/16 07:39:01;;;;;;;;;;;19.50;63.30;;;;;;5073781;28;19936;-66
2023/08/16 07:41:29;;;;;;;;;;;19.50;63.10;;;;;;5083495;28;20015;-65
2023/08/16 07:43:56;;;;;;;;;;;19.50;63.80;;;;;;5076464;28;19928;-67
2023/08/16 07:46:23;;;;;;;;;;;19.60;63.20;;;;;;5077476;28;19928;-66
2023/08/16 07:48:50;;;;;;;;;;;19.60;63.90;;;;;;5080092;28;20027;-65
2023/08/16 07:51:17;;;;;;;;;;;19.60;63.60;;;;;;5077096;28;19933;-66
2023/08/16 07:53:44;;;;;;;;;;;19.70;64.10;;;;;;5073205;28;20445;-66
2023/08/16 07:56:11;;;;;;;;;;;19.80;63.80;;;;;;5078825;28;19933;-66
2023/08/16 07:58:38;;;;;;;;;;;19.80;62.60;;;;;;5078322;28;19932;-65
2023/08/16 08:01:05;;;;;;;;;;;19.90;62.70;;;;;;5071622;28;19933;-65
2023/08/16 08:03:33;;;;;;;;;;;19.90;64.10;;;;;;5073947;28;19932;-64
2023/08/16 08:06:01;;;;;;;;;;;20.00;63.30;;;;;;5077124;28;19973;-66
2023/08/16 08:08:28;;;;;;;;;;;20.00;63.70;;;;;;5077981;28;19928;-66
2023/08/16 08:10:55;;;;;;;;;;;20.10;63.80;;;;;;5077328;28;20003;-65
2023/08/16 08:13:22;;;;;;;;;;;20.10;63.80;;;;;;5070845;28;20896;-66
2023/08/16 08:15:49;;;;;;;;;;;20.10;62.80;;;;;;5071978;28;20329;-65
2023/08/16 08:18:17;;;;;;;;;;;20.20;63.50;;;;;;5074307;28;19944;-66
2023/08/16 08:20:44;;;;;;;;;;;20.20;63.20;;;;;;5079448;28;19932;-66
2023/08/16 08:23:11;;;;;;;;;;;20.30;62.00;;;;;;5077787;28;19943;-66
2023/08/16 08:25:42;;;;;;;;;;;20.30;63.20;;;;;;5073735;28;19962;-65
2023/08/16 08:28:10;;;;;;;;;;;20.30;62.80;;;;;;5078047;28;20289;-66
2023/08/16 08:30:37;;;;;;;;;;;20.40;63.70;;;;;;5073596;28;20042;-65
2023/08/16 08:33:04;;;;;;;;;;;20.40;62.80;;;;;;5075258;28;20585;-66
2023/08/16 08:35:33;;;;;;;;;;;20.50;63.00;;;;;;5076145;28;19924;-65
2023/08/16 08:38:00;;;;;;;;;;;20.50;63.00;;;;;;5070271;28;19943;-66
2023/08/16 08:40:31;;;;;;;;;;;20.50;64.10;;;;;;5073112;28;20025;-65
2023/08/16 08:42:59;;;;;;;;;;;20.50;63.20;;;;;;5077835;28;19946;-66
2023/08/16 08:45:27;;;;;;;;;;;20.60;63.60;;;;;;5073791;28;19924;-66
2023/08/16 08:47:56;;;;;;;;;;;20.60;62.10;;;;;;5072642;28;19986;-65
2023/08/16 08:50:23;;;;;;;;;;;20.70;62.10;;;;;;5072428;28;19924;-64
2023/08/16 08:52:54;;;;;;;;;;;20.70;63.60;;;;;;5072254;28;19924;-65
2023/08/16 08:55:21;;;;;;;;;;;20.70;62.90;;;;;;5079508;28;19970;-66
2023/08/16 08:57:52;;;;;;;;;;;20.80;62.90;;;;;;5077755;28;20361;-65
2023/08/16 09:00:20;;;;;;;;;;;20.80;62.70;;;;;;5080027;28;19932;-65
2023/08/16 09:02:49;;;;;;;;;;;20.80;63.20;;;;;;5074224;28;19936;-65
2023/08/16 09:05:18;;;;;;;;;;;20.80;62.90;;;;;;5075351;28;20598;-65
2023/08/16 09:07:46;;;;;;;;;;;20.90;61.90;;;;;;5077344;28;19928;-65
2023/08/16 09:10:13;;;;;;;;;;;20.90;63.00;;;;;;5073434;28;19935;-66
2023/08/16 09:12:42;;;;;;;;;;;20.90;62.60;;;;;;5077408;28;19936;-66
2023/08/16 09:15:12;;;;;;;;;;;20.90;60.40;;;;;;5073454;28;20440;-66
2023/08/16 09:17:40;;;;;;;;;;;20.90;62.10;;;;;;5085187;28;20361;-65
2023/08/16 09:20:08;;;;;;;;;;;20.90;61.60;;;;;;5074967;28;19924;-65
2023/08/16 09:22:35;;;;;;;;;;;21.00;60.80;;;;;;5082786;28;19925;-66
2023/08/16 09:25:03;;;;;;;;;;;21.00;61.70;;;;;;5072592;28;19924;-65
2023/08/16 09:27:31;;;;;;;;;;;21.00;61.20;;;;;;5073293;28;19932;-65
2023/08/16 09:29:58;;;;;;;;;;;21.00;60.60;;;;;;5073175;28;19925;-65
2023/08/16 09:32:29;;;;;;;;;;;21.00;60.70;;;;;;5076759;28;19990;-65
2023/08/16 09:34:58;;;;;;;;;;;21.00;60.30;;;;;;5074942;28;20388;-66
2023/08/16 09:37:30;;;;;;;;;;;21.00;60.70;;;;;;5072971;28;19981;-65
2023/08/16 09:39:58;;;;;;;;;;;21.00;61.10;;;;;;5072956;28;19924;-66
2023/08/16 09:42:32;;;;;;;;;;;21.00;62.20;;;;;;5077672;28;19930;-66
2023/08/16 09:45:00;;;;;;;;;;;21.00;62.10;;;;;;5073220;28;19928;-67
2023/08/16 09:47:31;;;;;;;;;;;21.00;62.10;;;;;;5074807;28;19933;-65
2023/08/16 09:50:05;;;;;;;;;;;21.00;62.40;;;;;;5073896;28;19971;-66
2023/08/16 09:52:34;;;;;;;;;;;21.00;61.60;;;;;;5071018;28;20010;-66
2023/08/16 09:55:02;;;;;;;;;;;21.10;62.00;;;;;;5073979;28;19936;-66
2023/08/16 09:57:30;;;;;;;;;;;21.10;61.80;;;;;;5071244;28;19924;-65
2023/08/16 09:59:57;;;;;;;;;;;21.10;61.10;;;;;;5077021;28;19924;-66
2023/08/16 10:02:24;;;;;;;;;;;21.10;62.30;;;;;;5075405;28;19932;-66
2023/08/16 10:04:55;;;;;;;;;;;21.10;61.80;;;;;;5071333;28;20053;-65
2023/08/16 10:07:25;;;;;;;;;;;21.10;61.30;;;;;;5071091;28;19972;-66
2023/08/16 10:09:53;;;;;;;;;;;21.10;62.00;;;;;;5081909;28;19928;-65
2023/08/16 10:12:20;;;;;;;;;;;21.10;61.80;;;;;;5080003;28;19932;-66
2023/08/16 10:14:47;;;;;;;;;;;21.10;61.80;;;;;;5077540;28;20023;-66
2023/08/16 10:17:19;;;;;;;;;;;21.10;61.80;;;;;;5080951;28;19928;-65
2023/08/16 10:19:47;;;;;;;;;;;21.10;62.10;;;;;;5078133;28;19928;-65
2023/08/16 10:22:23;;;;;;;;;;;21.10;62.20;;;;;;5078650;28;20014;-65
2023/08/16 10:25:04;;;;;;;;;;;21.10;61.20;;;;;;5079350;28;20495;-65
2023/08/16 10:27:32;;;;;;;;;;;21.00;61.50;;;;;;5074981;28;21651;-65
2023/08/16 10:30:01;;;;;;;;;;;21.00;62.00;;;;;;5077208;28;19981;-65
2023/08/16 10:32:32;;;;;;;;;;;21.00;61.80;;;;;;5082682;28;19960;-65
2023/08/16 10:34:59;;;;;;;;;;;21.10;61.80;;;;;;5086347;28;19947;-65
2023/08/16 10:37:26;;;;;;;;;;;21.10;61.90;;;;;;5081940;28;19936;-65
2023/08/16 10:39:53;;;;;;;;;;;21.10;61.00;;;;;;5079836;28;19962;-65
2023/08/16 10:42:26;;;;;;;;;;;21.10;61.00;;;;;;5079365;28;20039;-66
2023/08/16 10:44:53;;;;;;;;;;;21.10;61.00;;;;;;5078599;28;20388;-65
2023/08/16 10:47:31;;;;;;;;;;;21.10;61.10;;;;;;5079344;28;20023;-65
2023/08/16 10:50:01;;;;;;;;;;;21.10;60.80;;;;;;5074329;28;20031;-66
2023/08/16 10:52:29;;;;;;;;;;;21.10;60.90;;;;;;5078692;28;19928;-65
2023/08/16 10:54:58;;;;;;;;;;;21.10;61.20;;;;;;5084190;28;20026;-65
2023/08/16 10:57:26;;;;;;;;;;;21.10;60.90;;;;;;5079408;28;20027;-65
2023/08/16 11:00:08;;;;;;;;;;;21.10;61.10;;;;;;5083363;28;19982;-65
2023/08/16 11:02:36;;;;;;;;;;;21.10;61.00;;;;;;5072691;28;19942;-66
2023/08/16 11:05:04;;;;;;;;;;;21.10;61.20;;;;;;5074089;28;20001;-65
2023/08/16 11:07:32;;;;;;;;;;;21.10;61.40;;;;;;5077108;28;19928;-66
2023/08/16 11:10:02;;;;;;;;;;;21.00;61.80;;;;;;5075966;28;19940;-65
2023/08/16 11:12:30;;;;;;;;;;;21.00;61.30;;;;;;5077627;28;19924;-66
2023/08/16 11:14:58;;;;;;;;;;;21.00;61.30;;;;;;5076428;28;20009;-66
2023/08/16 11:17:26;;;;;;;;;;;21.00;61.40;;;;;;5070491;28;19989;-65
2023/08/16 11:19:54;;;;;;;;;;;21.00;60.90;;;;;;5071300;28;19934;-64
2023/08/16 11:22:22;;;;;;;;;;;20.90;60.30;;;;;;5084397;28;20022;-64
2023/08/16 11:24:50;;;;;;;;;;;20.90;61.50;;;;;;5082081;28;20376;-64
2023/08/16 11:27:23;;;;;;;;;;;20.90;61.80;;;;;;5078535;28;19940;-64
2023/08/16 11:29:51;;;;;;;;;;;20.90;62.10;;;;;;5079499;28;19964;-65
2023/08/16 11:32:38;;;;;;;;;;;20.90;62.40;;;;;;5078750;28;19977;-65
2023/08/16 11:35:09;;;;;;;;;;;20.90;62.00;;;;;;5074739;28;19932;-65
2023/08/16 11:37:40;;;;;;;;;;;20.90;62.30;;;;;;5075423;28;19932;-65
2023/08/16 11:40:09;;;;;;;;;;;20.90;61.20;;;;;;5070500;28;20372;-65
2023/08/16 11:42:36;;;;;;;;;;;20.90;62.40;;;;;;5070999;28;19935;-66
2023/08/16 11:45:17;;;;;;;;;;;20.90;62.00;;;;;;5079399;28;19982;-65
2023/08/16 11:47:48;;;;;;;;;;;21.00;61.50;;;;;;5075424;28;19928;-65
2023/08/16 11:50:15;;;;;;;;;;;21.00;62.50;;;;;;5080601;28;19969;-65
2023/08/16 11:52:42;;;;;;;;;;;21.00;62.10;;;;;;5075650;28;19943;-65
2023/08/16 11:55:14;;;;;;;;;;;21.10;61.90;;;;;;5075319;28;19928;-65
2023/08/16 11:57:44;;;;;;;;;;;21.10;62.50;;;;;;5078572;28;19924;-66
2023/08/16 12:00:14;;;;;;;;;;;21.10;62.00;;;;;;5078873;28;19931;-65
2023/08/16 12:02:45;;;;;;;;;;;21.20;61.00;;;;;;5062855;28;19932;-59
2023/08/16 12:05:14;;;;;;;;;;;21.20;62.10;;;;;;5075885;28;19978;-59
2023/08/16 12:07:42;;;;;;;;;;;21.20;60.90;;;;;;5079662;28;19931;-59
2023/08/16 12:10:09;;;;;;;;;;;21.30;62.00;;;;;;5076695;28;19924;-59
2023/08/16 12:12:38;;;;;;;;;;;21.30;61.20;;;;;;5082651;28;20372;-59
2023/08/16 12:15:06;;;;;;;;;;;21.40;60.60;;;;;;5074803;28;19928;-58
2023/08/16 12:17:33;;;;;;;;;;;21.40;61.00;;;;;;5079068;28;19929;-59
2023/08/16 12:20:00;;;;;;;;;;;21.50;58.40;;;;;;5081858;28;21638;-58
2023/08/16 12:22:30;;;;;;;;;;;21.50;60.10;;;;;;5085358;28;19928;-58
2023/08/16 12:24:57;;;;;;;;;;;21.60;59.60;;;;;;5081609;28;19924;-59
2023/08/16 12:27:24;;;;;;;;;;;21.70;59.80;;;;;;5074870;28;19977;-58
2023/08/16 12:29:52;;;;;;;;;;;21.70;59.60;;;;;;5074213;28;19931;-58
2023/08/16 12:32:19;;;;;;;;;;;21.70;59.00;;;;;;5079705;28;20277;-58
2023/08/16 12:34:46;;;;;;;;;;;21.70;58.50;;;;;;5075134;28;19933;-59
2023/08/16 12:37:26;;;;;;;;;;;21.80;59.40;;;;;;5079399;28;20011;-59
2023/08/16 12:39:54;;;;;;;;;;;21.80;60.00;;;;;;5069652;28;19936;-59
2023/08/16 12:42:21;;;;;;;;;;;21.80;59.20;;;;;;5075353;28;20024;-59
2023/08/16 12:44:49;;;;;;;;;;;21.80;58.00;;;;;;5076215;28;19939;-59
2023/08/16 12:47:16;;;;;;;;;;;21.80;58.70;;;;;;5076371;28;19931;-60
2023/08/16 12:49:43;;;;;;;;;;;21.80;57.60;;;;;;5080838;28;19935;-60
2023/08/16 12:52:10;;;;;;;;;;;21.90;58.20;;;;;;5077176;28;20369;-60
2023/08/16 12:54:38;;;;;;;;;;;22.00;59.00;;;;;;5073945;28;20447;-60
2023/08/16 12:57:05;;;;;;;;;;;21.90;57.70;;;;;;5076219;28;20303;-60
2023/08/16 12:59:33;;;;;;;;;;;21.90;58.70;;;;;;5077136;28;19929;-61
2023/08/16 13:02:00;;;;;;;;;;;22.00;58.90;;;;;;5073215;28;19990;-60
2023/08/16 13:04:29;;;;;;;;;;;22.00;58.60;;;;;;5071281;28;19932;-59
2023/08/16 13:07:03;;;;;;;;;;;22.00;58.80;;;;;;5073994;28;20507;-59
2023/08/16 13:09:32;;;;;;;;;;;22.00;58.10;;;;;;5074682;28;19947;-59
2023/08/16 13:12:14;;;;;;;;;;;22.00;58.40;;;;;;5080756;28;20019;-60
2023/08/16 13:14:59;;;;;;;;;;;22.10;57.50;;;;;;5077231;28;19924;-60
2023/08/16 13:17:29;;;;;;;;;;;22.10;58.20;;;;;;5079301;28;20031;-59
2023/08/16 13:20:09;;;;;;;;;;;22.10;57.30;;;;;;5074701;28;20020;-59
2023/08/16 13:22:50;;;;;;;;;;;22.10;58.80;;;;;;5072483;28;19970;-61
2023/08/16 13:25:19;;;;;;;;;;;22.10;58.00;;;;;;5070995;28;20395;-59
2023/08/16 13:28:05;;;;;;;;;;;22.10;58.70;;;;;;5078817;28;19960;-60
2023/08/16 13:30:47;;;;;;;;;;;22.00;58.90;;;;;;5069769;28;20337;-59
2023/08/16 13:33:18;;;;;;;;;;;22.00;58.70;;;;;;5078331;28;19950;-61
2023/08/16 13:35:48;;;;;;;;;;;21.90;59.00;;;;;;5075148;28;20022;-60
2023/08/16 13:38:16;;;;;;;;;;;22.00;59.00;;;;;;5075554;28;20280;-60
2023/08/16 13:40:48;;;;;;;;;;;22.00;58.90;;;;;;5077558;28;20298;-61
2023/08/16 13:43:21;;;;;;;;;;;22.00;58.60;;;;;;5079513;28;19931;-60
2023/08/16 13:45:53;;;;;;;;;;;22.10;58.50;;;;;;5071658;28;19925;-59
2023/08/16 13:48:20;;;;;;;;;;;22.00;58.40;;;;;;5078460;28;20386;-61
2023/08/16 13:50:47;;;;;;;;;;;22.00;58.60;;;;;;5072641;28;19928;-60
2023/08/16 13:53:14;;;;;;;;;;;22.00;58.40;;;;;;5073865;28;19936;-61
2023/08/16 13:55:43;;;;;;;;;;;22.00;58.40;;;;;;5077224;28;20375;-60
2023/08/16 13:58:11;;;;;;;;;;;22.00;58.40;;;;;;5075181;28;19928;-63
2023/08/16 14:00:38;;;;;;;;;;;22.00;58.60;;;;;;5081203;28;19928;-60
2023/08/16 14:03:05;;;;;;;;;;;22.00;58.70;;;;;;5080335;28;19931;-59
2023/08/16 14:05:33;;;;;;;;;;;22.00;74.70;;;;;;5079628;28;20398;-60
2023/08/16 14:08:00;;;;;;;;;;;22.20;78.70;;;;;;5084435;28;19924;-60
2023/08/16 14:10:28;;;;;;;;;;;22.50;80.00;;;;;;5077158;28;19978;-60
2023/08/16 14:12:55;;;;;;;;;;;22.70;80.60;;;;;;5078936;28;20333;-57
2023/08/16 14:15:22;;;;;;;;;;;23.10;81.30;;;;;;5073711;28;19993;-59
2023/08/16 14:17:49;;;;;;;;;;;23.30;81.50;;;;;;5077694;28;20019;-60
2023/08/16 14:20:16;;;;;;;;;;;23.60;81.60;;;;;;5076168;28;19924;-60
2023/08/16 14:22:43;;;;;;;;;;;23.80;81.30;;;;;;5073699;28;20414;-61